createdAt,value
2023-03-29T00:04:55.412Z,4.30
2023-03-29T00:10:04.827Z,4.20
2023-03-29T00:15:09.240Z,4.80
2023-03-29T00:20:14.680Z,4.80
2023-03-29T00:25:18.241Z,7.00
2023-03-29T00:30:24.295Z,4.30
2023-03-29T00:35:29.360Z,5.50
2023-03-29T00:40:35.850Z,5.30
2023-03-29T00:45:41.071Z,10.70
2023-03-29T00:50:56.383Z,10.70
2023-03-29T00:56:21.847Z,10.60
2023-03-29T01:01:55.428Z,8.70
2023-03-29T01:07:18.849Z,7.40
2023-03-29T01:12:33.781Z,10.00
2023-03-29T01:17:40.364Z,8.20
2023-03-29T01:23:08.283Z,7.70
2023-03-29T01:28:32.300Z,6.60
2023-03-29T01:33:49.732Z,5.90
2023-03-29T01:38:58.391Z,6.80
2023-03-29T01:44:35.437Z,6.10
2023-03-29T01:49:48.042Z,5.90
2023-03-29T01:55:14.046Z,6.10
2023-03-29T02:00:23.286Z,5.50
2023-03-29T02:05:32.959Z,5.70
2023-03-29T02:10:38.558Z,6.00
2023-03-29T02:15:45.939Z,8.20
2023-03-29T02:20:51.876Z,5.00
2023-03-29T02:25:57.454Z,5.50
2023-03-29T02:31:34.974Z,4.20
2023-03-29T02:36:55.422Z,5.50
2023-03-29T02:42:01.898Z,3.20
2023-03-29T02:47:17.988Z,3.40
2023-03-29T02:52:42.536Z,4.40
2023-03-29T02:57:47.710Z,6.30
2023-03-29T03:02:52.730Z,4.20
2023-03-29T03:07:59.036Z,7.90
2023-03-29T03:13:04.720Z,6.70
2023-03-29T03:18:09.997Z,5.90
2023-03-29T03:23:14.206Z,5.40
2023-03-29T03:28:19.223Z,5.30
2023-03-29T03:33:23.143Z,5.70
2023-03-29T03:38:27.911Z,5.50
2023-03-29T03:43:31.750Z,6.30
2023-03-29T03:48:38.709Z,6.90
2023-03-29T03:53:42.793Z,27.20
2023-03-29T03:58:49.145Z,10.60
2023-03-29T04:03:54.390Z,15.20
2023-03-29T04:09:00.241Z,19.20
2023-03-29T04:14:05.308Z,11.10
2023-03-29T04:19:09.736Z,10.10
2023-03-29T04:24:15.261Z,8.80
2023-03-29T04:29:19.605Z,12.90
2023-03-29T04:34:24.482Z,12.20
2023-03-29T04:39:34.999Z,11.20
2023-03-29T04:44:40.997Z,16.00
2023-03-29T04:49:45.396Z,13.70
2023-03-29T04:54:49.947Z,14.60
2023-03-29T04:59:54.232Z,14.40
2023-03-29T05:04:59.351Z,17.40
2023-03-29T05:10:04.613Z,19.10
2023-03-29T05:15:10.231Z,20.20
2023-03-29T05:20:14.973Z,16.50
2023-03-29T05:25:19.989Z,13.30
2023-03-29T05:30:24.687Z,13.50
2023-03-29T05:35:30.021Z,13.70
2023-03-29T05:40:34.880Z,13.90
2023-03-29T05:45:39.702Z,11.80
2023-03-29T05:50:49.927Z,13.50
2023-03-29T05:55:54.998Z,11.60
2023-03-29T06:01:01.567Z,11.40
2023-03-29T06:06:05.889Z,7.30
2023-03-29T06:11:11.503Z,10.80
2023-03-29T06:16:15.442Z,9.20
2023-03-29T06:21:19.927Z,11.70
2023-03-29T06:26:23.440Z,12.10
2023-03-29T06:31:27.035Z,8.70
2023-03-29T06:36:31.923Z,8.10
2023-03-29T06:41:35.568Z,7.70
2023-03-29T06:46:39.598Z,7.20
2023-03-29T06:51:43.543Z,5.50
2023-03-29T06:56:47.757Z,5.70
2023-03-29T07:01:53.007Z,6.50
2023-03-29T07:07:06.951Z,6.20
2023-03-29T07:12:11.428Z,5.30
2023-03-29T07:17:17.453Z,7.20
2023-03-29T07:22:24.798Z,5.60
2023-03-29T07:27:28.866Z,6.00
2023-03-29T07:32:34.291Z,5.40
2023-03-29T07:37:38.454Z,5.70
2023-03-29T07:42:47.025Z,5.50
2023-03-29T07:47:55.948Z,5.00
2023-03-29T07:53:01.107Z,5.00
2023-03-29T07:58:04.791Z,4.10
2023-03-29T08:03:12.896Z,4.80
2023-03-29T08:08:16.647Z,3.70
2023-03-29T08:13:19.951Z,3.70
2023-03-29T08:18:24.305Z,3.20
2023-03-29T08:23:28.338Z,4.10
2023-03-29T08:28:32.445Z,4.30
2023-03-29T08:33:36.905Z,5.20
2023-03-29T08:38:41.011Z,6.30
2023-03-29T08:43:53.217Z,5.30
2023-03-29T08:49:03.025Z,3.60
2023-03-29T08:54:12.932Z,3.30
2023-03-29T08:59:32.984Z,2.50
2023-03-29T09:04:40.042Z,2.50
2023-03-29T09:09:47.782Z,2.40
2023-03-29T09:14:52.837Z,1.80
2023-03-29T09:20:28.180Z,1.10
2023-03-29T09:25:54.388Z,3.30
2023-03-29T09:31:14.792Z,1.50
2023-03-29T09:36:53.137Z,2.70
2023-03-29T09:42:08.314Z,2.00
2023-03-29T09:47:24.048Z,2.40
2023-03-29T09:52:28.590Z,2.30
2023-03-29T09:57:32.992Z,2.20
2023-03-29T10:02:37.031Z,1.80
2023-03-29T10:07:46.045Z,1.90
2023-03-29T10:12:52.196Z,1.70
2023-03-29T10:18:07.188Z,2.60
2023-03-29T10:23:19.923Z,2.00
2023-03-29T10:28:27.137Z,1.80
2023-03-29T10:33:35.070Z,1.50
2023-03-29T10:38:40.310Z,1.60
2023-03-29T10:43:47.868Z,1.50
2023-03-29T10:49:07.031Z,1.50
2023-03-29T10:54:15.681Z,1.50
2023-03-29T10:59:41.289Z,2.10
2023-03-29T11:04:53.331Z,1.30
2023-03-29T11:10:27.982Z,2.00
2023-03-29T11:16:03.200Z,0.80
2023-03-29T11:21:14.511Z,2.00
2023-03-29T11:26:27.672Z,1.80
2023-03-29T11:32:10.231Z,1.60
2023-03-29T11:37:40.972Z,1.80
2023-03-29T11:42:49.008Z,1.80
2023-03-29T11:47:54.725Z,2.10
2023-03-29T11:53:05.650Z,1.90
2023-03-29T11:58:23.667Z,1.50
2023-03-29T12:04:05.915Z,2.40
2023-03-29T12:09:25.759Z,1.20
2023-03-29T12:15:02.375Z,1.90
2023-03-29T12:20:29.815Z,1.60
2023-03-29T12:26:01.214Z,1.60
2023-03-29T12:31:21.267Z,1.50
2023-03-29T12:37:07.212Z,2.50
2023-03-29T12:42:20.078Z,1.30
2023-03-29T12:47:28.184Z,1.50
2023-03-29T12:52:36.525Z,2.10
2023-03-29T12:57:45.557Z,1.40
2023-03-29T13:03:04.947Z,1.80
2023-03-29T13:08:22.940Z,1.40
2023-03-29T13:13:38.896Z,2.10
2023-03-29T13:19:03.434Z,1.30
2023-03-29T13:24:22.433Z,2.00
2023-03-29T13:29:54.023Z,1.60
2023-03-29T13:35:16.518Z,1.50
2023-03-29T13:40:47.057Z,1.80
2023-03-29T13:45:59.993Z,1.80
2023-03-29T13:51:27.719Z,2.00
2023-03-29T13:56:52.872Z,2.00
2023-03-29T14:02:00.948Z,1.70
2023-03-29T14:07:10.140Z,2.20
2023-03-29T14:12:16.176Z,2.20
2023-03-29T14:17:24.083Z,2.60
2023-03-29T14:22:34.429Z,2.00
2023-03-29T14:27:38.220Z,2.70
2023-03-29T14:32:41.937Z,1.40
2023-03-29T14:37:46.860Z,1.90
2023-03-29T14:42:51.656Z,2.00
2023-03-29T14:47:55.945Z,3.10
2023-03-29T14:53:01.015Z,2.80
2023-03-29T14:58:16.804Z,2.80
2023-03-29T15:03:27.889Z,3.00
2023-03-29T15:08:38.228Z,2.30
2023-03-29T15:13:45.385Z,2.90
2023-03-29T15:18:53.570Z,2.70
2023-03-29T15:24:00.983Z,2.40
2023-03-29T15:29:23.842Z,2.40
2023-03-29T15:34:30.098Z,2.90
2023-03-29T15:39:34.000Z,2.10
2023-03-29T15:44:39.701Z,2.60
2023-03-29T15:49:43.659Z,2.40
2023-03-29T15:54:47.867Z,2.30
2023-03-29T15:59:52.154Z,3.00
2023-03-29T16:04:56.069Z,3.30
2023-03-29T16:09:59.698Z,2.30
2023-03-29T16:15:19.190Z,2.10
2023-03-29T16:20:22.642Z,2.20
2023-03-29T16:25:28.214Z,2.40
2023-03-29T16:30:33.107Z,1.90
2023-03-29T16:35:40.884Z,1.40
2023-03-29T16:40:45.778Z,2.30
2023-03-29T16:45:49.950Z,2.30
2023-03-29T16:50:53.442Z,3.00
2023-03-29T16:56:05.970Z,2.90
2023-03-29T17:01:13.676Z,4.40
2023-03-29T17:11:24.387Z,4.30
2023-03-29T17:16:29.595Z,2.70
2023-03-29T17:21:34.251Z,3.90
2023-03-29T17:26:38.545Z,5.20
2023-03-29T17:31:48.115Z,3.50
2023-03-29T17:36:53.915Z,3.60
2023-03-29T17:41:57.572Z,3.90
2023-03-29T17:47:01.984Z,3.80
2023-03-29T17:52:07.048Z,6.60
2023-03-29T17:57:11.904Z,6.10
2023-03-29T18:02:22.285Z,4.90
2023-03-29T18:07:26.036Z,8.80
2023-03-29T18:12:30.555Z,9.10
2023-03-29T18:17:37.441Z,9.00
2023-03-29T18:22:42.729Z,5.90
2023-03-29T18:27:47.285Z,8.10
2023-03-29T18:32:53.487Z,7.50
2023-03-29T18:37:59.616Z,10.50
2023-03-29T18:43:03.871Z,10.70
2023-03-29T18:48:08.431Z,8.90
2023-03-29T18:53:15.869Z,8.40
2023-03-29T19:03:29.534Z,9.30
2023-03-29T19:08:37.330Z,7.90
2023-03-29T19:13:47.176Z,7.80
2023-03-29T19:18:52.618Z,8.90
2023-03-29T19:23:56.403Z,8.60
2023-03-29T19:29:02.489Z,11.20
2023-03-29T19:34:11.879Z,8.90
2023-03-29T19:39:18.998Z,9.40
2023-03-29T19:44:24.910Z,7.40
2023-03-29T19:49:29.850Z,9.10
2023-03-29T19:54:34.824Z,8.70
2023-03-29T19:59:41.231Z,9.00
2023-03-29T20:04:46.908Z,8.40
2023-03-29T20:09:52.614Z,8.40
2023-03-29T20:14:56.367Z,8.90
2023-03-29T20:20:01.137Z,7.60
2023-03-29T20:25:05.862Z,6.50
2023-03-29T20:30:11.421Z,8.80
2023-03-29T20:35:16.016Z,8.60
2023-03-29T20:40:21.240Z,8.50
2023-03-29T20:45:26.275Z,8.90
2023-03-29T20:50:30.762Z,6.90
2023-03-29T20:55:35.482Z,8.80
2023-03-29T21:00:40.940Z,8.00
2023-03-29T21:05:45.656Z,9.40
2023-03-29T21:10:49.581Z,10.30
2023-03-29T21:15:54.241Z,10.60
2023-03-29T21:20:58.268Z,8.80
2023-03-29T21:26:03.510Z,9.20
2023-03-29T21:31:08.499Z,9.50
2023-03-29T21:36:13.183Z,11.50
2023-03-29T21:41:18.763Z,8.00
2023-03-29T21:46:25.130Z,10.20
2023-03-29T21:51:29.188Z,9.50
2023-03-29T21:56:33.530Z,11.10
2023-03-29T22:01:38.598Z,9.30
2023-03-29T22:06:43.662Z,10.90
2023-03-29T22:11:49.140Z,9.50
2023-03-29T22:16:53.636Z,11.00
2023-03-29T22:22:02.122Z,9.90
2023-03-29T22:27:07.015Z,11.90
2023-03-29T22:32:11.530Z,11.40
2023-03-29T22:37:15.584Z,9.70
2023-03-29T22:48:09.158Z,10.30
2023-03-29T22:53:14.054Z,10.10
2023-03-29T23:03:54.157Z,10.60
2023-03-29T23:08:58.515Z,9.70
2023-03-29T23:14:06.461Z,9.30
2023-03-29T23:19:10.927Z,8.10
2023-03-29T23:24:19.252Z,11.10
2023-03-29T23:29:26.724Z,8.20
2023-03-29T23:34:31.056Z,9.80
2023-03-29T23:39:35.176Z,13.00
2023-03-29T23:44:40.308Z,9.20
2023-03-29T23:49:45.778Z,9.40
2023-03-29T23:54:51.990Z,7.80
